Hovedside
METAR-TAF:

METAR-TAF

Lufthavner :

Satu Mare, Romania

breddegrad: 47-48N, lengdegrad: 022-53E, høyde over havet: 123 m

Gjeldene værobservasjon

Denne rapporten ble laget for 54 minutter siden, klokken 05:00 UTC
Vind 3 kt fra Vest-sørvest, skiftende mellom Sør og Vest-nordvest
Temperatur 20°C
Luftfuktighet 94%
Trykk 1011 hPa
Sikt: 0300 m
tåke,

METAR: LRSM 220500Z AUTO 24003KT 190V290 0300 R19/0400N FG VV001 20/19 Q1011

Tid: 08:54 (05:54 UTC)

Varsel

Denne rapporten ble laget for 54 minutter siden, klokken 05:00 UTC
Varsel gyldig fra 22. klokken 06 UTC til 22. klokken 15 UTC
Vind 4 kt fra skiftende retning
Sikt: 1500 m
Brutte skyer i en høyde av 200 ft
dis
Midlertidig
fra 22. klokken 06 UTC til 22. klokken 07 UTC
Sikt: 0800 m
Overskyet i en høyde av 100 ft
tåke
Blir
fra 22. klokken 07 UTC til 22. klokken 09 UTC
Sikt 10 km eller mer
Spredte skyer i en høyde av 1000 ft

TAF: LRSM 220500Z 2206/2215 VRB04KT 1500 BR BKN002 TEMPO 2206/2207 0800 FG OVC001 BECMG 2207/2209 9999 NSW SCT010

Værobservasjoner og værvarsel for over 4000 flyplasser (METAR- og TAF-rapporter).

Tilgjengelige stasjoner er representert av de røde og gule prikkene på kartet.

Hold musepekeren over prikken for å se navnet på stasjonen.

Klikk så for å se værobservasjoner og -varsler.

For å forandre kartet kan du klikke på den grønne knappen med svart kryss for å zoome inn, på den grønne knappen med strek for å zoome ut, eller på de grønne pilene for å se tilstøtende kart.


METAR-TAF: